createdAt,value
2022-09-20T00:00:08.148Z,3.58
2022-09-20T00:01:17.395Z,3.41
2022-09-20T00:01:57.119Z,3.45
2022-09-20T00:02:37.390Z,3.16
2022-09-20T00:03:19.154Z,3.24
2022-09-20T00:04:05.402Z,3.24
2022-09-20T00:04:46.138Z,3.51
2022-09-20T00:05:26.164Z,3.60
2022-09-20T00:06:00.413Z,3.74
2022-09-20T00:06:47.089Z,3.72
2022-09-20T00:07:21.242Z,3.72
2022-09-20T00:08:10.097Z,3.55
2022-09-20T00:08:44.196Z,3.47
2022-09-20T00:09:31.106Z,3.60
2022-09-20T00:10:05.200Z,3.75
2022-09-20T00:10:46.208Z,3.60
2022-09-20T00:11:35.207Z,3.89
2022-09-20T00:12:16.124Z,4.03
2022-09-20T00:12:56.148Z,3.79
2022-09-20T00:13:37.123Z,3.96
2022-09-20T00:14:17.191Z,4.21
2022-09-20T00:14:57.132Z,4.16
2022-09-20T00:15:37.193Z,4.24
2022-09-20T00:16:25.209Z,4.41
2022-09-20T00:17:05.229Z,4.13
2022-09-20T00:17:45.135Z,3.67
2022-09-20T00:18:25.237Z,3.44
2022-09-20T00:19:08.282Z,3.53
2022-09-20T00:19:49.188Z,3.75
2022-09-20T00:20:30.095Z,3.76
2022-09-20T00:21:11.157Z,3.59
2022-09-20T00:21:51.414Z,3.56
2022-09-20T00:22:31.228Z,3.45
2022-09-20T00:23:11.133Z,3.24
2022-09-20T00:23:52.195Z,3.15
2022-09-20T00:24:32.063Z,3.21
2022-09-20T00:25:13.247Z,3.28
2022-09-20T00:26:03.092Z,3.26
2022-09-20T00:26:43.196Z,3.25
2022-09-20T00:27:23.131Z,3.15
2022-09-20T00:28:03.175Z,3.16
2022-09-20T00:28:43.137Z,3.33
2022-09-20T00:29:23.207Z,3.47
2022-09-20T00:30:05.070Z,3.39
2022-09-20T00:30:46.245Z,3.19
2022-09-20T00:31:27.164Z,3.09
2022-09-20T00:32:07.204Z,3.19
2022-09-20T00:32:48.113Z,3.11
2022-09-20T00:33:49.184Z,3.34
2022-09-20T00:34:48.122Z,3.24
2022-09-20T00:35:28.351Z,3.17
2022-09-20T00:36:09.092Z,3.36
2022-09-20T00:36:50.156Z,3.41
2022-09-20T00:37:30.053Z,3.45
2022-09-20T00:38:10.130Z,3.51
2022-09-20T00:38:44.121Z,3.28
2022-09-20T00:39:31.062Z,3.66
2022-09-20T00:40:05.236Z,3.65
2022-09-20T00:40:52.076Z,3.58
2022-09-20T00:41:26.160Z,3.56
2022-09-20T00:42:14.093Z,3.61
2022-09-20T00:42:56.145Z,3.66
2022-09-20T00:43:51.123Z,3.69
2022-09-20T00:45:04.291Z,3.70
2022-09-20T00:45:44.117Z,3.72
2022-09-20T00:46:45.170Z,3.50
2022-09-20T00:47:55.104Z,3.66
2022-09-20T00:48:37.161Z,4.15
2022-09-20T00:49:28.152Z,4.18
2022-09-20T00:50:47.174Z,3.99
2022-09-20T00:51:38.075Z,3.85
2022-09-20T00:52:18.151Z,3.81
2022-09-20T00:53:06.059Z,3.95
2022-09-20T00:53:52.800Z,4.15
2022-09-20T00:54:34.096Z,4.04
2022-09-20T00:55:15.400Z,3.99
2022-09-20T00:56:18.052Z,4.10
2022-09-20T00:56:59.276Z,4.14
2022-09-20T00:57:42.041Z,4.26
2022-09-20T00:58:23.120Z,4.46
2022-09-20T00:59:18.058Z,4.55
2022-09-20T00:59:59.162Z,4.35
2022-09-20T01:00:34.140Z,4.26
2022-09-20T01:01:07.910Z,4.32
2022-09-20T01:01:51.072Z,4.56
2022-09-20T01:02:33.473Z,4.78
2022-09-20T01:03:10.020Z,4.93
2022-09-20T01:03:52.045Z,4.79
2022-09-20T01:04:27.462Z,4.50
2022-09-20T01:05:08.145Z,4.55
2022-09-20T01:05:49.129Z,4.68
2022-09-20T01:06:29.050Z,4.88
2022-09-20T01:07:12.120Z,4.76
2022-09-20T01:07:54.049Z,4.88
2022-09-20T01:08:35.123Z,4.94
2022-09-20T01:09:16.057Z,4.90
2022-09-20T01:09:57.482Z,5.03
2022-09-20T01:10:39.056Z,5.14
2022-09-20T01:11:19.208Z,4.99
2022-09-20T01:12:02.027Z,4.81
2022-09-20T01:12:46.227Z,4.73
2022-09-20T01:13:26.088Z,4.71
2022-09-20T01:14:06.109Z,4.78
2022-09-20T01:14:47.030Z,5.06
2022-09-20T01:15:29.120Z,4.66
2022-09-20T01:16:10.136Z,4.79
2022-09-20T01:16:50.164Z,4.71
2022-09-20T01:17:33.020Z,4.72
2022-09-20T01:18:14.086Z,4.90
2022-09-20T01:18:55.026Z,4.72
2022-09-20T01:20:13.107Z,4.72
2022-09-20T01:20:54.051Z,4.91
2022-09-20T01:21:35.057Z,5.11
2022-09-20T01:22:13.107Z,4.99
2022-09-20T01:23:31.452Z,4.82
2022-09-20T01:25:08.025Z,5.21
2022-09-20T01:25:59.173Z,5.10
2022-09-20T01:27:12.081Z,4.93
2022-09-20T01:27:58.109Z,4.80
2022-09-20T01:28:39.025Z,4.78
2022-09-20T01:29:52.118Z,4.75
2022-09-20T01:30:39.011Z,4.78
2022-09-20T01:31:35.194Z,4.65
2022-09-20T01:32:22.124Z,4.79
2022-09-20T01:33:31.250Z,4.86
2022-09-20T01:34:31.039Z,4.65
2022-09-20T01:35:07.078Z,4.56
2022-09-20T01:35:55.995Z,4.66
2022-09-20T01:37:00.069Z,4.54
2022-09-20T01:38:18.086Z,4.68
2022-09-20T01:39:15.091Z,4.55
2022-09-20T01:40:38.105Z,4.50
2022-09-20T01:41:25.273Z,4.57
2022-09-20T01:42:19.170Z,4.72
2022-09-20T01:43:06.105Z,4.59
2022-09-20T01:44:28.067Z,4.66
2022-09-20T01:45:38.211Z,4.84
2022-09-20T01:46:39.000Z,5.04
2022-09-20T01:47:38.075Z,5.14
2022-09-20T01:48:20.976Z,5.00
2022-09-20T01:49:18.078Z,5.05
2022-09-20T01:50:22.157Z,5.05
2022-09-20T01:51:52.113Z,5.29
2022-09-20T01:53:01.049Z,5.19
2022-09-20T01:54:15.081Z,5.06
2022-09-20T01:55:27.224Z,4.91
2022-09-20T01:56:40.286Z,5.10
2022-09-20T01:58:07.186Z,5.25
2022-09-20T01:59:24.000Z,5.43
2022-09-20T02:00:27.014Z,5.57
2022-09-20T02:01:45.136Z,5.54
2022-09-20T02:02:46.050Z,5.56
2022-09-20T02:03:51.048Z,5.70
2022-09-20T02:05:09.997Z,5.95
2022-09-20T02:06:00.206Z,5.82
2022-09-20T02:06:43.058Z,5.86
2022-09-20T02:08:17.047Z,5.61
2022-09-20T02:09:13.076Z,5.64
2022-09-20T02:10:36.049Z,5.81
2022-09-20T02:11:30.015Z,6.09
2022-09-20T02:12:35.993Z,5.95
2022-09-20T02:13:54.007Z,5.72
2022-09-20T02:15:20.978Z,5.43
2022-09-20T02:16:58.115Z,5.68
2022-09-20T02:18:29.015Z,5.91
2022-09-20T02:19:48.028Z,5.66
2022-09-20T02:21:09.993Z,5.51
2022-09-20T02:22:23.978Z,5.53
2022-09-20T02:23:57.025Z,5.84
2022-09-20T02:25:38.994Z,5.74
2022-09-20T02:26:50.992Z,5.64
2022-09-20T02:28:24.005Z,5.49
2022-09-20T02:29:20.024Z,5.38
2022-09-20T02:30:37.980Z,5.65
2022-09-20T02:31:38.143Z,5.47
2022-09-20T02:32:45.988Z,5.79
2022-09-20T02:34:19.069Z,5.95
2022-09-20T02:35:18.079Z,5.84
2022-09-20T02:36:27.983Z,5.65
2022-09-20T02:37:46.234Z,5.60
2022-09-20T02:38:37.956Z,5.69
2022-09-20T02:39:48.030Z,5.79
2022-09-20T02:41:15.971Z,5.97
2022-09-20T02:42:32.964Z,6.07
2022-09-20T02:44:01.977Z,6.16
2022-09-20T02:45:25.005Z,5.89
2022-09-20T02:46:39.033Z,6.26
2022-09-20T02:47:52.012Z,6.59
2022-09-20T02:49:02.965Z,6.32
2022-09-20T02:50:05.925Z,6.38
2022-09-20T02:50:56.092Z,6.40
2022-09-20T02:51:48.019Z,6.45
2022-09-20T02:52:57.936Z,6.24
2022-09-20T02:54:08.984Z,6.47
2022-09-20T02:55:10.957Z,6.36
2022-09-20T02:56:29.041Z,6.29
2022-09-20T02:58:08.953Z,6.14
2022-09-20T02:59:19.960Z,6.10
2022-09-20T03:00:24.932Z,5.69
2022-09-20T03:01:43.032Z,5.66
2022-09-20T03:03:08.977Z,5.99
2022-09-20T03:05:09.930Z,6.07
2022-09-20T03:06:57.964Z,5.89
2022-09-20T03:08:38.967Z,5.88
2022-09-20T03:10:01.968Z,5.99
2022-09-20T03:11:22.967Z,6.10
2022-09-20T03:12:57.973Z,5.97
2022-09-20T03:14:24.932Z,6.07
2022-09-20T03:15:59.903Z,6.15
2022-09-20T03:17:36.024Z,5.99
2022-09-20T03:18:25.942Z,6.25
2022-09-20T03:19:24.005Z,6.40
2022-09-20T03:20:27.938Z,6.21
2022-09-20T03:21:30.993Z,6.28
2022-09-20T03:23:00.031Z,6.04
2022-09-20T03:24:38.026Z,6.35
2022-09-20T03:25:48.914Z,6.74
2022-09-20T03:26:49.940Z,6.55
2022-09-20T03:28:20.951Z,6.56
2022-09-20T03:29:22.933Z,6.45
2022-09-20T03:30:35.961Z,6.32
2022-09-20T03:31:44.086Z,6.20
2022-09-20T03:32:58.904Z,6.36
2022-09-20T03:34:26.035Z,6.65
2022-09-20T03:35:37.916Z,6.64
2022-09-20T03:36:47.951Z,6.49
2022-09-20T03:37:46.904Z,6.29
2022-09-20T03:38:59.007Z,6.36
2022-09-20T03:39:51.938Z,6.25
2022-09-20T03:41:10.015Z,6.09
2022-09-20T03:42:28.930Z,5.93
2022-09-20T03:43:52.908Z,5.74
2022-09-20T03:45:23.884Z,5.54
2022-09-20T03:46:32.928Z,5.51
2022-09-20T03:47:53.877Z,5.46
2022-09-20T03:49:02.908Z,5.25
2022-09-20T03:50:20.903Z,5.15
2022-09-20T03:51:34.507Z,5.19
2022-09-20T03:52:48.911Z,4.95
2022-09-20T03:53:54.915Z,5.29
2022-09-20T03:55:00.915Z,5.64
2022-09-20T03:56:51.954Z,5.36
2022-09-20T03:58:19.967Z,5.10
2022-09-20T04:00:00.898Z,4.86
2022-09-20T04:01:38.914Z,4.90
2022-09-20T04:02:43.989Z,4.55
2022-09-20T04:03:42.004Z,4.16
2022-09-20T04:04:56.879Z,4.09
2022-09-20T04:06:07.996Z,4.13
2022-09-20T04:07:12.885Z,3.97
2022-09-20T04:08:48.934Z,3.94
2022-09-20T04:09:54.899Z,4.24
2022-09-20T04:11:18.903Z,4.34
2022-09-20T04:13:03.852Z,4.10
2022-09-20T04:14:40.929Z,4.20
2022-09-20T04:16:03.889Z,3.94
2022-09-20T04:17:11.875Z,3.54
2022-09-20T04:18:41.848Z,4.00
2022-09-20T04:19:53.878Z,4.43
2022-09-20T04:20:53.932Z,3.92
2022-09-20T04:22:13.866Z,3.79
2022-09-20T04:23:09.915Z,3.97
2022-09-20T04:24:17.845Z,4.34
2022-09-20T04:25:39.719Z,4.99
2022-09-20T04:26:45.864Z,4.99
2022-09-20T04:27:48.869Z,5.45
2022-09-20T04:29:08.926Z,5.75
2022-09-20T04:30:17.879Z,5.64
2022-09-20T04:31:03.856Z,5.51
2022-09-20T04:31:54.463Z,5.19
2022-09-20T04:32:49.892Z,4.70
2022-09-20T04:33:42.909Z,4.63
2022-09-20T04:34:51.906Z,4.59
2022-09-20T04:36:36.961Z,5.60
2022-09-20T04:37:47.870Z,7.34
2022-09-20T04:38:42.833Z,6.80
2022-09-20T04:39:45.844Z,6.57
2022-09-20T04:40:57.859Z,6.78
2022-09-20T04:42:00.876Z,6.96
2022-09-20T04:43:24.862Z,6.85
2022-09-20T04:44:41.855Z,5.71
2022-09-20T04:45:44.854Z,5.78
2022-09-20T04:47:34.877Z,5.69
2022-09-20T04:49:04.840Z,4.93
2022-09-20T04:50:35.845Z,4.51
2022-09-20T04:51:57.832Z,4.89
2022-09-20T04:53:33.904Z,4.68
2022-09-20T04:55:05.833Z,4.04
2022-09-20T04:56:14.814Z,4.53
2022-09-20T04:57:32.824Z,4.46
2022-09-20T04:58:53.867Z,3.95
2022-09-20T05:00:20.815Z,3.78
2022-09-20T05:01:32.634Z,4.00
2022-09-20T05:03:17.822Z,4.32
2022-09-20T05:05:02.873Z,4.28
2022-09-20T05:06:06.832Z,4.30
2022-09-20T05:07:43.879Z,4.09
2022-09-20T05:08:59.306Z,4.25
2022-09-20T05:10:33.828Z,4.16
2022-09-20T05:11:55.781Z,4.39
2022-09-20T05:13:49.818Z,5.00
2022-09-20T05:15:18.820Z,5.07
2022-09-20T05:16:11.877Z,4.94
2022-09-20T05:17:14.901Z,5.15
2022-09-20T05:18:39.771Z,5.15
2022-09-20T05:19:51.861Z,4.80
2022-09-20T05:21:09.840Z,4.91
2022-09-20T05:22:26.796Z,4.55
2022-09-20T05:23:29.841Z,4.39
2022-09-20T05:24:58.791Z,4.53
2022-09-20T05:25:52.840Z,4.84
2022-09-20T05:26:45.836Z,5.06
2022-09-20T05:27:55.940Z,4.85
2022-09-20T05:28:47.779Z,4.64
2022-09-20T05:29:45.946Z,4.95
2022-09-20T05:30:51.769Z,5.09
2022-09-20T05:32:06.871Z,5.10
2022-09-20T05:33:46.769Z,5.21
2022-09-20T05:35:13.978Z,4.96
2022-09-20T05:37:24.830Z,4.89
2022-09-20T05:38:57.160Z,4.84
2022-09-20T05:40:27.052Z,4.61
2022-09-20T05:41:54.765Z,4.65
2022-09-20T05:42:58.776Z,4.78
2022-09-20T05:43:45.908Z,4.88
2022-09-20T05:45:09.753Z,5.21
2022-09-20T05:46:05.939Z,5.65
2022-09-20T05:47:25.773Z,5.89
2022-09-20T05:48:24.830Z,5.81
2022-09-20T05:49:51.771Z,5.89
2022-09-20T05:51:04.059Z,6.25
2022-09-20T05:52:35.776Z,5.81
2022-09-20T05:54:15.865Z,5.66
2022-09-20T05:56:02.740Z,5.36
2022-09-20T05:57:07.727Z,5.46
2022-09-20T05:58:38.755Z,5.25
2022-09-20T05:59:40.847Z,4.86
2022-09-20T06:00:36.742Z,5.00
2022-09-20T06:01:52.757Z,5.39
2022-09-20T06:03:13.775Z,5.45
2022-09-20T06:04:43.777Z,5.54
2022-09-20T06:06:15.752Z,5.40
2022-09-20T06:07:29.789Z,5.32
2022-09-20T06:09:06.732Z,5.32
2022-09-20T06:10:44.435Z,5.43
2022-09-20T06:11:53.740Z,5.75
2022-09-20T06:13:18.738Z,5.88
2022-09-20T06:14:59.759Z,5.74
2022-09-20T06:16:12.872Z,6.05
2022-09-20T06:17:24.818Z,6.29
2022-09-20T06:19:03.749Z,5.96
2022-09-20T06:19:55.809Z,5.66
2022-09-20T06:21:11.745Z,5.64
2022-09-20T06:22:08.787Z,5.82
2022-09-20T06:23:06.740Z,5.65
2022-09-20T06:24:00.746Z,5.40
2022-09-20T06:25:20.788Z,5.10
2022-09-20T06:26:30.774Z,4.91
2022-09-20T06:27:31.728Z,5.15
2022-09-20T06:28:41.708Z,5.25
2022-09-20T06:29:44.745Z,5.21
2022-09-20T06:30:49.721Z,5.31
2022-09-20T06:31:43.766Z,4.96
2022-09-20T06:32:38.763Z,4.93
2022-09-20T06:33:44.749Z,4.80
2022-09-20T06:34:38.721Z,5.05
2022-09-20T06:35:34.773Z,4.79
2022-09-20T06:36:57.779Z,4.89
2022-09-20T06:38:26.719Z,4.91
2022-09-20T06:39:52.740Z,5.38
2022-09-20T06:41:17.710Z,4.78
2022-09-20T06:42:13.741Z,4.80
2022-09-20T06:43:07.708Z,5.06
2022-09-20T06:44:02.709Z,5.45
2022-09-20T06:44:56.720Z,5.84
2022-09-20T06:45:50.772Z,5.49
2022-09-20T06:46:47.763Z,5.10
2022-09-20T06:47:38.673Z,5.10
2022-09-20T06:48:15.140Z,5.16
2022-09-20T06:49:02.704Z,5.54
2022-09-20T06:49:36.741Z,5.43
2022-09-20T06:50:24.713Z,5.30
2022-09-20T06:50:58.881Z,5.43
2022-09-20T06:51:49.703Z,5.36
2022-09-20T06:52:28.165Z,5.49
2022-09-20T06:53:08.714Z,5.56
2022-09-20T06:53:48.848Z,5.20
2022-09-20T06:54:29.701Z,5.46
2022-09-20T06:55:09.789Z,5.36
2022-09-20T06:55:51.696Z,5.30
2022-09-20T06:56:36.664Z,5.47
2022-09-20T06:57:17.670Z,5.53
2022-09-20T06:57:57.740Z,5.57
2022-09-20T06:58:38.820Z,6.00
2022-09-20T06:59:18.824Z,5.82
2022-09-20T06:59:58.697Z,5.71
2022-09-20T07:00:39.843Z,6.05
2022-09-20T07:01:29.569Z,5.84
2022-09-20T07:02:11.028Z,5.75
2022-09-20T07:02:50.683Z,5.72
2022-09-20T07:03:32.839Z,5.68
2022-09-20T07:04:20.700Z,5.51
2022-09-20T07:05:01.777Z,5.71
2022-09-20T07:05:42.717Z,5.57
2022-09-20T07:06:22.804Z,5.35
2022-09-20T07:07:09.638Z,5.28
2022-09-20T07:07:50.213Z,5.40
2022-09-20T07:08:29.683Z,5.47
2022-09-20T07:09:10.781Z,5.61
2022-09-20T07:09:51.706Z,5.82
2022-09-20T07:10:45.715Z,5.63
2022-09-20T07:11:40.719Z,5.49
2022-09-20T07:12:34.685Z,5.55
2022-09-20T07:13:28.706Z,6.22
2022-09-20T07:14:22.722Z,7.41
2022-09-20T07:15:10.690Z,6.51
2022-09-20T07:15:44.773Z,5.97
2022-09-20T07:16:32.715Z,6.06
2022-09-20T07:17:07.516Z,5.74
2022-09-20T07:17:55.725Z,5.65
2022-09-20T07:18:29.790Z,5.82
2022-09-20T07:19:16.730Z,6.05
2022-09-20T07:19:51.018Z,6.64
2022-09-20T07:20:31.705Z,6.64
2022-09-20T07:21:12.308Z,6.94
2022-09-20T07:21:52.688Z,6.51
2022-09-20T07:22:33.812Z,6.81
2022-09-20T07:23:16.669Z,6.95
2022-09-20T07:23:57.900Z,6.20
2022-09-20T07:24:38.707Z,5.65
2022-09-20T07:25:21.291Z,5.93
2022-09-20T07:26:11.751Z,6.47
2022-09-20T07:27:04.227Z,6.47
2022-09-20T07:27:46.735Z,6.40
2022-09-20T07:28:26.719Z,6.24
2022-09-20T07:29:07.742Z,6.29
2022-09-20T07:29:47.800Z,6.24
2022-09-20T07:30:28.726Z,6.53
2022-09-20T07:31:08.756Z,6.41
2022-09-20T07:31:49.757Z,6.31
2022-09-20T07:32:30.239Z,6.32
2022-09-20T07:33:10.707Z,6.38
2022-09-20T07:33:50.731Z,6.13
2022-09-20T07:34:31.719Z,5.64
2022-09-20T07:35:12.749Z,5.71
2022-09-20T07:35:56.668Z,5.83
2022-09-20T07:36:37.101Z,6.55
2022-09-20T07:37:17.771Z,7.09
2022-09-20T07:38:03.839Z,7.53
2022-09-20T07:38:44.660Z,8.19
2022-09-20T07:39:25.815Z,8.20
2022-09-20T07:40:05.707Z,7.35
2022-09-20T07:40:46.268Z,7.68
2022-09-20T07:41:29.648Z,6.60
2022-09-20T07:42:11.718Z,6.43
2022-09-20T07:42:56.077Z,6.30
2022-09-20T07:43:37.776Z,6.39
2022-09-20T07:44:34.702Z,7.20
2022-09-20T07:45:15.781Z,8.00
2022-09-20T07:46:01.750Z,9.06
2022-09-20T07:46:41.752Z,9.36
2022-09-20T07:47:21.668Z,9.50
2022-09-20T07:48:11.707Z,9.49
2022-09-20T07:49:05.666Z,8.45
2022-09-20T07:49:59.707Z,5.81
2022-09-20T07:50:53.759Z,4.96
2022-09-20T07:51:47.664Z,5.01
2022-09-20T07:52:41.672Z,5.49
2022-09-20T07:53:29.706Z,5.69
2022-09-20T07:54:03.726Z,6.11
2022-09-20T07:54:52.652Z,6.94
2022-09-20T07:55:27.775Z,7.64
2022-09-20T07:56:21.681Z,7.41
2022-09-20T07:56:55.749Z,7.47
2022-09-20T07:57:46.749Z,8.01
2022-09-20T07:58:20.783Z,7.14
2022-09-20T07:59:01.823Z,6.53
2022-09-20T07:59:41.770Z,6.31
2022-09-20T08:00:22.649Z,5.72
2022-09-20T08:01:05.845Z,5.69
2022-09-20T08:01:47.679Z,5.86
2022-09-20T08:02:27.704Z,5.94
2022-09-20T08:03:08.698Z,5.82
2022-09-20T08:03:48.709Z,5.66
2022-09-20T08:04:28.710Z,5.06
2022-09-20T08:05:10.774Z,5.01
2022-09-20T08:05:52.693Z,4.95
2022-09-20T08:06:32.797Z,5.01
2022-09-20T08:07:13.627Z,5.06
2022-09-20T08:07:54.337Z,5.03
2022-09-20T08:08:40.634Z,4.97
2022-09-20T08:09:20.823Z,4.95
2022-09-20T08:10:00.693Z,5.66
2022-09-20T08:10:54.658Z,6.22
2022-09-20T08:11:49.673Z,6.80
2022-09-20T08:14:09.372Z,5.01
2022-09-20T08:15:04.499Z,5.25
2022-09-20T08:16:00.652Z,5.07
2022-09-20T08:16:58.651Z,5.04
2022-09-20T08:17:52.658Z,5.01
2022-09-20T08:18:47.649Z,4.91
2022-09-20T08:19:41.605Z,5.05
2022-09-20T08:20:28.704Z,4.76
2022-09-20T08:21:06.188Z,4.79
2022-09-20T08:21:54.624Z,4.86
2022-09-20T08:22:28.741Z,5.19
2022-09-20T08:23:24.307Z,5.31
2022-09-20T08:23:58.706Z,5.69
2022-09-20T08:24:45.644Z,5.88
2022-09-20T08:25:19.713Z,5.63
2022-09-20T08:26:03.705Z,5.50
2022-09-20T08:26:43.761Z,5.68
2022-09-20T08:27:24.591Z,5.14
2022-09-20T08:28:04.699Z,5.06
2022-09-20T08:28:48.683Z,5.20
2022-09-20T08:29:28.732Z,4.94
2022-09-20T08:30:09.640Z,5.25
2022-09-20T08:30:49.694Z,5.72
2022-09-20T08:31:33.660Z,5.57
2022-09-20T08:32:13.697Z,5.60
2022-09-20T08:32:53.680Z,5.34
2022-09-20T08:33:33.841Z,4.90
2022-09-20T08:34:16.579Z,4.89
2022-09-20T08:34:56.643Z,5.05
2022-09-20T08:35:38.237Z,5.24
2022-09-20T08:36:22.662Z,5.10
2022-09-20T08:37:02.651Z,4.82
2022-09-20T08:37:46.321Z,5.07
2022-09-20T08:40:29.685Z,5.10
2022-09-20T08:41:28.750Z,4.79
2022-09-20T08:42:20.642Z,5.01
2022-09-20T08:43:05.488Z,5.16
2022-09-20T08:44:12.603Z,5.16
2022-09-20T08:45:02.666Z,4.90
2022-09-20T08:45:43.629Z,4.72
2022-09-20T08:46:28.830Z,5.00
2022-09-20T08:47:33.604Z,4.82
2022-09-20T08:48:19.668Z,4.78
2022-09-20T08:49:00.610Z,5.13
2022-09-20T08:49:45.760Z,5.30
2022-09-20T08:50:27.585Z,5.36
2022-09-20T08:51:11.663Z,5.28
2022-09-20T08:51:56.566Z,5.28
2022-09-20T08:52:46.609Z,5.40
2022-09-20T08:53:41.598Z,5.30
2022-09-20T08:54:36.576Z,5.30
2022-09-20T08:55:37.745Z,5.60
2022-09-20T08:56:32.587Z,5.69
2022-09-20T08:57:32.593Z,5.72
2022-09-20T08:58:16.666Z,6.00
2022-09-20T08:59:00.013Z,5.74
2022-09-20T08:59:39.588Z,6.22
2022-09-20T09:00:29.542Z,6.39
2022-09-20T09:01:10.656Z,6.30
2022-09-20T09:01:51.164Z,6.60
2022-09-20T09:02:32.602Z,6.28
2022-09-20T09:03:25.680Z,6.28
2022-09-20T09:04:37.573Z,6.54
2022-09-20T09:06:01.573Z,6.34
2022-09-20T09:06:57.612Z,6.19
2022-09-20T09:07:51.584Z,6.01
2022-09-20T09:08:51.616Z,6.21
2022-09-20T09:09:48.580Z,6.22
2022-09-20T09:10:49.560Z,6.47
2022-09-20T09:11:46.756Z,6.71
2022-09-20T09:12:48.751Z,6.36
2022-09-20T09:14:09.572Z,6.40
2022-09-20T09:15:05.625Z,6.16
2022-09-20T09:16:07.810Z,6.49
2022-09-20T09:17:01.583Z,6.10
2022-09-20T09:17:55.555Z,5.65
2022-09-20T09:18:55.579Z,5.69
2022-09-20T09:19:51.583Z,5.43
2022-09-20T09:20:32.651Z,5.21
2022-09-20T09:21:15.564Z,5.41
2022-09-20T09:21:55.633Z,5.25
2022-09-20T09:22:48.570Z,5.46
2022-09-20T09:23:36.228Z,5.34
2022-09-20T09:24:24.597Z,5.40
2022-09-20T09:25:45.645Z,5.88
2022-09-20T09:26:40.558Z,6.05
2022-09-20T09:27:34.561Z,6.06
2022-09-20T09:28:29.558Z,5.90
2022-09-20T09:29:34.263Z,5.57
2022-09-20T09:30:46.568Z,5.49
2022-09-20T09:31:40.601Z,5.54
2022-09-20T09:32:43.542Z,5.88
2022-09-20T09:33:43.556Z,6.05
2022-09-20T09:34:46.568Z,6.45
2022-09-20T09:35:44.576Z,7.31
2022-09-20T09:36:31.574Z,8.09
2022-09-20T09:37:11.616Z,7.69
2022-09-20T09:38:05.565Z,6.88
2022-09-20T09:38:48.660Z,6.03
2022-09-20T09:39:36.532Z,5.71
2022-09-20T09:40:22.787Z,5.57
2022-09-20T09:41:06.599Z,5.91
2022-09-20T09:42:00.560Z,5.54
2022-09-20T09:43:35.577Z,5.69
2022-09-20T09:44:37.511Z,5.75
2022-09-20T09:45:58.595Z,5.72
2022-09-20T09:46:41.570Z,5.70
2022-09-20T09:47:34.600Z,6.22
2022-09-20T09:48:44.522Z,6.47
2022-09-20T09:49:35.958Z,6.22
2022-09-20T09:50:33.516Z,5.55
2022-09-20T09:51:33.632Z,5.68
2022-09-20T09:52:23.534Z,5.81
2022-09-20T09:53:09.570Z,5.84
2022-09-20T09:53:51.523Z,5.99
2022-09-20T09:54:33.644Z,6.01
2022-09-20T09:55:18.504Z,5.82
2022-09-20T09:56:31.623Z,5.89
2022-09-20T09:57:44.567Z,6.04
2022-09-20T09:58:48.591Z,6.04
2022-09-20T09:59:46.552Z,5.95
2022-09-20T10:00:31.367Z,6.05
2022-09-20T10:01:17.601Z,6.07
2022-09-20T10:02:10.944Z,6.25
2022-09-20T10:03:14.552Z,6.82
2022-09-20T10:04:43.577Z,7.66
2022-09-20T10:06:04.552Z,7.04
2022-09-20T10:07:10.524Z,5.36
2022-09-20T10:08:23.604Z,5.74
2022-09-20T10:09:44.519Z,5.86
2022-09-20T10:10:51.550Z,5.71
2022-09-20T10:12:05.505Z,5.64
2022-09-20T10:13:17.522Z,5.80
2022-09-20T10:14:48.548Z,5.39
2022-09-20T10:15:40.640Z,5.50
2022-09-20T10:16:45.610Z,5.63
2022-09-20T10:18:11.312Z,5.61
2022-09-20T10:19:25.527Z,5.59
2022-09-20T10:20:21.533Z,5.75
2022-09-20T10:21:11.367Z,5.89
2022-09-20T10:22:40.539Z,5.60
2022-09-20T10:24:01.258Z,5.46
2022-09-20T10:24:59.511Z,5.24
2022-09-20T10:26:04.757Z,5.09
2022-09-20T10:27:23.492Z,4.88
2022-09-20T10:29:02.871Z,4.81
2022-09-20T10:30:22.499Z,4.89
2022-09-20T10:31:30.583Z,4.53
2022-09-20T10:32:41.510Z,5.05
2022-09-20T10:34:06.546Z,5.57
2022-09-20T10:35:31.474Z,5.01
2022-09-20T10:37:02.512Z,4.93
2022-09-20T10:38:19.461Z,4.69
2022-09-20T10:39:49.544Z,4.35
2022-09-20T10:41:07.502Z,5.22
2022-09-20T10:42:36.510Z,5.84
2022-09-20T10:44:05.815Z,5.41
2022-09-20T10:45:55.975Z,4.51
2022-09-20T10:46:54.717Z,3.97
2022-09-20T10:47:53.496Z,3.97
2022-09-20T10:48:52.921Z,3.96
2022-09-20T10:49:52.453Z,4.09
2022-09-20T10:51:12.651Z,3.84
2022-09-20T10:52:07.478Z,3.49
2022-09-20T10:53:12.512Z,3.20
2022-09-20T10:54:44.472Z,2.99
2022-09-20T10:56:07.502Z,2.89
2022-09-20T10:57:32.460Z,2.88
2022-09-20T10:59:13.512Z,2.85
2022-09-20T11:00:32.476Z,3.20
2022-09-20T11:01:37.542Z,3.26
2022-09-20T11:02:46.477Z,3.31
2022-09-20T11:04:26.495Z,3.19
2022-09-20T11:05:53.457Z,2.88
2022-09-20T11:07:21.473Z,2.81
2022-09-20T11:08:34.471Z,2.91
2022-09-20T11:09:34.559Z,3.11
2022-09-20T11:10:52.445Z,3.17
2022-09-20T11:11:57.494Z,2.69
2022-09-20T11:12:57.453Z,3.09
2022-09-20T11:14:29.464Z,3.00
2022-09-20T11:15:21.554Z,2.60
2022-09-20T11:16:28.824Z,2.60
2022-09-20T11:17:41.433Z,2.61
2022-09-20T11:18:42.540Z,2.84
2022-09-20T11:19:44.439Z,3.11
2022-09-20T11:20:50.481Z,3.34
2022-09-20T11:22:03.510Z,3.09
2022-09-20T11:23:01.442Z,2.92
2022-09-20T11:24:19.467Z,2.75
2022-09-20T11:25:51.519Z,2.78
2022-09-20T11:27:05.503Z,2.86
2022-09-20T11:28:06.433Z,2.80
2022-09-20T11:29:08.452Z,2.79
2022-09-20T11:30:29.475Z,2.83
2022-09-20T11:31:41.592Z,3.05
2022-09-20T11:32:20.552Z,3.20
2022-09-20T11:33:25.451Z,2.91
2022-09-20T11:34:28.612Z,2.74
2022-09-20T11:35:18.464Z,2.99
2022-09-20T11:35:59.595Z,2.80
2022-09-20T11:37:08.520Z,2.66
2022-09-20T11:37:50.533Z,2.49
2022-09-20T11:39:31.499Z,2.47
2022-09-20T11:40:48.433Z,2.74
2022-09-20T11:41:44.482Z,2.99
2022-09-20T11:42:37.498Z,3.01
2022-09-20T11:43:14.147Z,3.06
2022-09-20T11:44:17.508Z,3.24
2022-09-20T11:44:51.549Z,3.03
2022-09-20T11:45:40.470Z,2.76
2022-09-20T11:46:17.579Z,2.79
2022-09-20T11:47:52.867Z,2.92
2022-09-20T11:48:48.448Z,3.13
2022-09-20T11:49:50.269Z,3.91
2022-09-20T11:51:19.129Z,3.00
2022-09-20T11:52:20.274Z,2.75
2022-09-20T11:53:36.973Z,2.67
2022-09-20T11:54:54.452Z,2.64
2022-09-20T11:56:02.502Z,2.50
2022-09-20T11:56:42.421Z,2.55
2022-09-20T11:57:23.621Z,2.44
2022-09-20T11:58:28.452Z,2.29
2022-09-20T11:59:13.977Z,2.34
2022-09-20T12:00:02.442Z,2.34
2022-09-20T12:00:49.511Z,2.60
2022-09-20T12:01:43.486Z,2.69
2022-09-20T12:02:40.510Z,3.09
2022-09-20T12:04:04.251Z,3.00
2022-09-20T12:04:55.833Z,3.03
2022-09-20T12:05:50.459Z,2.70
2022-09-20T12:06:33.542Z,2.79
2022-09-20T12:07:27.615Z,2.70
2022-09-20T12:08:14.519Z,2.70
2022-09-20T12:08:57.396Z,3.06
2022-09-20T12:09:41.485Z,2.78
2022-09-20T12:10:34.449Z,2.40
2022-09-20T12:11:20.558Z,2.50
2022-09-20T12:11:54.506Z,2.30
2022-09-20T12:12:45.453Z,2.33
2022-09-20T12:13:32.409Z,2.42
2022-09-20T12:14:22.444Z,2.38
2022-09-20T12:15:00.035Z,2.38
2022-09-20T12:15:42.431Z,2.33
2022-09-20T12:16:31.473Z,2.29
2022-09-20T12:17:05.432Z,2.33
2022-09-20T12:18:05.521Z,2.15
2022-09-20T12:19:02.150Z,2.15
2022-09-20T12:19:51.531Z,2.22
2022-09-20T12:20:38.664Z,2.44
2022-09-20T12:21:31.422Z,2.41
2022-09-20T12:22:04.974Z,2.36
2022-09-20T12:22:52.413Z,2.28
2022-09-20T12:23:38.401Z,2.36
2022-09-20T12:24:35.399Z,2.38
2022-09-20T12:25:38.712Z,2.41
2022-09-20T12:26:32.408Z,2.39
2022-09-20T12:27:27.607Z,2.25
2022-09-20T12:28:14.435Z,2.34
2022-09-20T12:28:56.764Z,2.28
2022-09-20T12:29:43.493Z,2.21
2022-09-20T12:30:21.915Z,2.29
2022-09-20T12:31:35.473Z,2.26
2022-09-20T12:32:46.616Z,2.16
2022-09-20T12:33:34.362Z,2.14
2022-09-20T12:34:13.346Z,2.20
2022-09-20T12:35:00.388Z,2.21
2022-09-20T12:35:36.995Z,2.38
2022-09-20T12:36:31.394Z,2.25
2022-09-20T12:37:11.420Z,2.22
2022-09-20T12:37:52.431Z,2.00
2022-09-20T12:38:39.363Z,2.03
2022-09-20T12:39:24.233Z,2.08
2022-09-20T12:40:06.422Z,2.03
2022-09-20T12:41:13.531Z,2.04
2022-09-20T12:42:31.415Z,2.13
2022-09-20T12:43:12.438Z,2.21
2022-09-20T12:44:38.380Z,2.24
2022-09-20T12:45:24.458Z,2.15
2022-09-20T12:46:09.896Z,2.28
2022-09-20T12:47:17.450Z,2.15
2022-09-20T12:48:01.380Z,1.94
2022-09-20T12:48:44.452Z,1.96
2022-09-20T12:49:56.388Z,1.99
2022-09-20T12:50:55.081Z,1.77
2022-09-20T12:51:58.364Z,1.80
2022-09-20T12:52:50.633Z,1.98
2022-09-20T12:53:30.385Z,2.17
2022-09-20T12:54:14.604Z,2.10
2022-09-20T12:55:04.632Z,2.14
2022-09-20T12:55:58.614Z,2.19
2022-09-20T12:56:43.353Z,2.00
2022-09-20T12:57:32.125Z,2.03
2022-09-20T12:58:21.378Z,2.01
2022-09-20T12:59:03.397Z,2.03
2022-09-20T12:59:37.567Z,2.29
2022-09-20T13:00:37.956Z,2.08
2022-09-20T13:01:19.439Z,2.24
2022-09-20T13:01:53.535Z,2.01
2022-09-20T13:02:52.847Z,1.85
2022-09-20T13:03:51.348Z,1.90
2022-09-20T13:05:07.396Z,1.85
2022-09-20T13:05:46.017Z,1.99
2022-09-20T13:06:33.335Z,2.16